Time;durP1;ratioP1;P1;durP2;ratioP2;P2;SDS_P1;SDS_P2;PMS_P1;PMS_P2;Temp;Humidity;BMP_temperature;BMP_pressure;BME280_temperature;BME280_humidity;BME280_pressure;Samples;Min_cycle;Max_cycle;Signal;HPM_P1;HPM_P2
2021/05/12 00:00:11;;;;;;;2.75;1.40;;;11.90;89.90;;;;;;5092813;28;20020;-70
2021/05/12 00:02:37;;;;;;;5.43;1.73;;;11.90;89.70;;;;;;5098430;28;20035;-70
2021/05/12 00:05:04;;;;;;;2.58;1.45;;;11.90;89.70;;;;;;5110452;28;20383;-70
2021/05/12 00:07:30;;;;;;;3.85;1.60;;;11.90;89.60;;;;;;5103343;28;20429;-70
2021/05/12 00:09:55;;;;;;;3.47;1.65;;;11.90;89.60;;;;;;5093103;28;20031;-70
2021/05/12 00:12:21;;;;;;;3.22;1.77;;;11.90;89.70;;;;;;5092746;28;20020;-70
2021/05/12 00:14:47;;;;;;;2.10;1.90;;;11.90;89.70;;;;;;5091508;28;20028;-70
2021/05/12 00:17:17;;;;;;;2.47;1.60;;;11.90;89.60;;;;;;5101698;28;20160;-70
2021/05/12 00:19:43;;;;;;;1.73;1.63;;;11.90;89.50;;;;;;5104819;28;20024;-70
2021/05/12 00:24:38;;;;;;;2.63;1.83;;;11.80;89.50;;;;;;5104691;28;20058;-70
2021/05/12 00:27:05;;;;;;;2.88;1.77;;;11.80;89.40;;;;;;5097874;28;20059;-70
2021/05/12 00:29:30;;;;;;;2.75;1.77;;;11.80;89.50;;;;;;5104165;28;20024;-70
2021/05/12 00:31:56;;;;;;;2.08;1.88;;;11.80;89.70;;;;;;5102926;28;20040;-71
2021/05/12 00:34:22;;;;;;;3.03;2.13;;;11.90;89.80;;;;;;5109026;28;20019;-70
2021/05/12 00:36:47;;;;;;;5.28;2.28;;;11.90;89.90;;;;;;5093681;28;20070;-70
2021/05/12 00:39:13;;;;;;;3.22;2.00;;;11.90;89.70;;;;;;5100113;28;20032;-70
2021/05/12 00:41:40;;;;;;;3.50;2.33;;;11.90;89.50;;;;;;5112304;28;20023;-70
2021/05/12 00:44:19;;;;;;;2.58;2.38;;;11.90;89.60;;;;;;5092292;28;20016;-70
2021/05/12 00:46:50;;;;;;;2.63;2.42;;;11.90;89.40;;;;;;5110758;28;20051;-69
2021/05/12 00:49:16;;;;;;;4.00;2.85;;;11.90;89.70;;;;;;5102530;28;20028;-70
2021/05/12 00:51:42;;;;;;;5.50;3.20;;;11.90;89.80;;;;;;5103470;28;20089;-70
2021/05/12 00:54:09;;;;;;;5.78;3.30;;;11.90;89.90;;;;;;5106183;28;20060;-70
2021/05/12 00:56:38;;;;;;;3.50;3.20;;;11.90;89.80;;;;;;5092140;28;20028;-70
2021/05/12 00:59:04;;;;;;;4.10;3.22;;;11.90;89.90;;;;;;5105018;28;20076;-69
2021/05/12 01:01:30;;;;;;;4.40;3.67;;;11.80;89.50;;;;;;5089842;28;20054;-70
2021/05/12 01:03:55;;;;;;;3.85;3.45;;;11.80;89.60;;;;;;5104530;28;20440;-70
2021/05/12 01:06:31;;;;;;;7.55;3.95;;;11.80;89.50;;;;;;5109215;28;20016;-71
2021/05/12 01:08:56;;;;;;;4.60;4.20;;;11.80;89.70;;;;;;5099829;28;20035;-75
2021/05/12 01:11:23;;;;;;;4.43;4.00;;;11.80;89.50;;;;;;5093351;28;20393;-70
2021/05/12 01:13:50;;;;;;;6.32;4.30;;;11.80;89.60;;;;;;5107966;28;20028;-70
2021/05/12 01:16:20;;;;;;;4.88;4.43;;;11.80;89.70;;;;;;5098304;28;20773;-70
2021/05/12 01:18:46;;;;;;;5.88;5.05;;;11.70;90.00;;;;;;5096793;28;20060;-70
2021/05/12 01:21:13;;;;;;;5.05;4.57;;;11.80;89.70;;;;;;5108667;28;20043;-70
2021/05/12 01:23:45;;;;;;;6.63;4.90;;;11.80;89.80;;;;;;5105826;28;20035;-70
2021/05/12 01:26:13;;;;;;;5.28;4.70;;;11.80;90.10;;;;;;5102066;28;20032;-70
2021/05/12 01:28:42;;;;;;;5.65;4.68;;;11.80;89.80;;;;;;5097544;28;20118;-70
2021/05/12 01:31:15;;;;;;;6.00;5.05;;;11.80;89.90;;;;;;5092846;28;20024;-70
2021/05/12 01:33:41;;;;;;;5.90;5.28;;;11.70;89.90;;;;;;5108984;28;20034;-70
2021/05/12 01:36:08;;;;;;;6.60;5.60;;;11.70;89.90;;;;;;5079402;28;20337;-69
2021/05/12 01:38:35;;;;;;;5.88;5.28;;;11.70;89.80;;;;;;5108299;28;20038;-70
2021/05/12 01:41:02;;;;;;;6.95;5.50;;;11.70;90.00;;;;;;5076924;28;20115;-69
2021/05/12 01:43:29;;;;;;;7.63;5.95;;;11.70;90.00;;;;;;5091873;28;20080;-70
2021/05/12 01:45:55;;;;;;;9.30;6.30;;;11.70;90.00;;;;;;5103168;28;20119;-69
2021/05/12 01:48:21;;;;;;;6.20;5.68;;;11.70;90.00;;;;;;5099015;28;20116;-70
2021/05/12 01:50:47;;;;;;;7.47;5.90;;;11.70;90.00;;;;;;5104311;28;20032;-70
2021/05/12 01:53:13;;;;;;;6.28;5.68;;;11.70;90.00;;;;;;5088178;28;20031;-70
2021/05/12 01:55:39;;;;;;;6.20;5.40;;;11.70;90.00;;;;;;5090508;28;20184;-70
2021/05/12 01:58:05;;;;;;;7.38;5.28;;;11.70;90.00;;;;;;5094105;28;20667;-71
2021/05/12 02:00:43;;;;;;;5.03;4.53;;;11.70;90.00;;;;;;5104167;28;20041;-70
2021/05/12 02:03:09;;;;;;;5.55;4.82;;;11.70;90.10;;;;;;5109998;28;20020;-70
2021/05/12 02:05:37;;;;;;;4.45;4.05;;;11.70;90.00;;;;;;5104512;28;20024;-70
2021/05/12 02:08:06;;;;;;;6.13;4.18;;;11.70;90.10;;;;;;5109565;28;20019;-70
2021/05/12 02:10:33;;;;;;;4.53;4.00;;;11.70;90.10;;;;;;5098146;28;20103;-69
2021/05/12 02:12:58;;;;;;;3.45;3.15;;;11.70;90.10;;;;;;5096437;28;20027;-70
2021/05/12 02:15:25;;;;;;;3.80;3.50;;;11.60;90.00;;;;;;5107098;28;20088;-70
2021/05/12 02:17:51;;;;;;;2.97;2.78;;;11.60;90.10;;;;;;5102503;28;20480;-70
2021/05/12 02:20:22;;;;;;;2.63;2.42;;;11.60;90.10;;;;;;5109233;28;20023;-70
2021/05/12 02:22:48;;;;;;;2.40;2.20;;;11.60;90.10;;;;;;5108771;28;20035;-70
2021/05/12 02:25:14;;;;;;;2.50;2.30;;;11.60;90.10;;;;;;5091248;28;20457;-70
2021/05/12 02:27:39;;;;;;;2.00;1.90;;;11.60;90.20;;;;;;5091400;28;20027;-70
2021/05/12 02:30:11;;;;;;;1.80;1.70;;;11.60;90.10;;;;;;5108920;28;20445;-70
2021/05/12 02:32:36;;;;;;;1.70;1.60;;;11.60;90.10;;;;;;5091157;28;20419;-70
2021/05/12 02:35:03;;;;;;;1.70;1.60;;;11.60;90.00;;;;;;5105166;28;20020;-70
2021/05/12 02:37:28;;;;;;;2.80;1.58;;;11.50;90.10;;;;;;5102419;28;20416;-70
2021/05/12 02:39:54;;;;;;;1.80;1.52;;;11.50;90.10;;;;;;5108981;28;20111;-70
2021/05/12 02:42:21;;;;;;;1.45;1.40;;;11.50;90.10;;;;;;5109192;28;20024;-70
2021/05/12 02:44:46;;;;;;;1.05;1.05;;;11.40;90.10;;;;;;5103206;28;20453;-70
2021/05/12 02:47:12;;;;;;;2.45;1.45;;;11.50;90.20;;;;;;5105985;28;20023;-70
2021/05/12 02:49:39;;;;;;;1.50;1.40;;;11.50;90.20;;;;;;5107482;28;20039;-70
2021/05/12 02:52:05;;;;;;;1.00;1.00;;;11.50;90.20;;;;;;5103421;28;20035;-70
2021/05/12 02:54:30;;;;;;;1.10;1.10;;;11.50;90.20;;;;;;5102356;28;20487;-70
2021/05/12 02:56:56;;;;;;;1.40;0.98;;;11.40;90.30;;;;;;5087470;28;20153;-70
2021/05/12 02:59:22;;;;;;;1.15;1.15;;;11.40;90.30;;;;;;5101215;28;20023;-70
2021/05/12 03:01:48;;;;;;;2.15;1.30;;;11.50;90.30;;;;;;5103559;28;20031;-69
2021/05/12 03:04:13;;;;;;;1.48;1.38;;;11.40;90.20;;;;;;5087560;28;20020;-70
2021/05/12 03:06:39;;;;;;;1.65;1.50;;;11.40;90.50;;;;;;5100940;28;20039;-70
2021/05/12 03:09:07;;;;;;;1.77;1.67;;;11.40;90.20;;;;;;5090176;28;20032;-70
2021/05/12 03:11:33;;;;;;;1.60;1.50;;;11.30;90.30;;;;;;5096445;28;20038;-70
2021/05/12 03:13:59;;;;;;;1.70;1.60;;;11.30;90.20;;;;;;5092398;28;20038;-70
2021/05/12 03:16:24;;;;;;;2.13;1.50;;;11.30;90.30;;;;;;5105867;28;20106;-70
2021/05/12 03:18:50;;;;;;;3.28;1.75;;;11.30;90.30;;;;;;5098730;28;20483;-69
2021/05/12 03:21:16;;;;;;;2.85;1.70;;;11.30;90.30;;;;;;5107525;28;20554;-69
2021/05/12 03:23:41;;;;;;;2.40;1.83;;;11.30;90.30;;;;;;5166317;22;20539;-68
2021/05/12 03:26:07;;;;;;;2.58;2.08;;;11.30;90.20;;;;;;5079873;28;20044;-68
2021/05/12 03:28:32;;;;;;;3.55;2.33;;;11.20;90.30;;;;;;5062113;28;20452;-67
2021/05/12 03:30:58;;;;;;;3.28;2.08;;;11.20;90.30;;;;;;5058333;28;20036;-68
2021/05/12 03:33:24;;;;;;;2.25;2.00;;;11.20;90.30;;;;;;5050426;28;20441;-67
2021/05/12 03:35:49;;;;;;;4.20;1.98;;;11.20;90.30;;;;;;5055582;28;20052;-68
2021/05/12 03:38:15;;;;;;;3.40;1.90;;;11.20;90.30;;;;;;5068302;28;20104;-67
2021/05/12 03:40:42;;;;;;;3.10;1.40;;;11.20;90.30;;;;;;5069367;28;20077;-68
2021/05/12 03:43:09;;;;;;;1.40;1.30;;;11.10;90.30;;;;;;5069144;28;20029;-67
2021/05/12 03:45:34;;;;;;;2.45;1.63;;;11.10;90.30;;;;;;5067908;28;20040;-68
2021/05/12 03:48:00;;;;;;;2.13;1.90;;;11.10;90.20;;;;;;5070205;28;20021;-68
2021/05/12 03:50:28;;;;;;;2.22;1.90;;;11.00;90.30;;;;;;5070748;28;20021;-68
2021/05/12 03:52:54;;;;;;;2.05;1.85;;;11.00;90.30;;;;;;5069449;28;20020;-67
2021/05/12 03:55:20;;;;;;;2.20;2.00;;;11.00;90.30;;;;;;5067413;28;20106;-67
2021/05/12 03:57:46;;;;;;;2.88;2.58;;;11.00;90.30;;;;;;5072373;28;20052;-69
2021/05/12 04:00:13;;;;;;;3.22;2.78;;;11.00;90.40;;;;;;5073529;28;20032;-67
2021/05/12 04:02:40;;;;;;;5.75;3.78;;;11.00;90.40;;;;;;5081244;28;20652;-67
2021/05/12 04:05:07;;;;;;;6.63;5.03;;;10.90;90.30;;;;;;5053667;28;20028;-68
2021/05/12 04:07:32;;;;;;;9.57;5.88;;;10.90;90.40;;;;;;5078375;28;20027;-67
2021/05/12 04:09:58;;;;;;;7.78;6.43;;;10.90;90.40;;;;;;5058282;28;20031;-67
2021/05/12 04:12:23;;;;;;;11.45;7.45;;;10.90;90.40;;;;;;5072978;28;20079;-68
2021/05/12 04:14:50;;;;;;;9.63;6.65;;;10.90;90.40;;;;;;5084300;28;20031;-68
2021/05/12 04:17:15;;;;;;;10.55;7.13;;;10.90;90.40;;;;;;5075513;28;20017;-68
2021/05/12 04:19:41;;;;;;;10.73;7.38;;;10.90;90.40;;;;;;5048480;28;20539;-67
2021/05/12 04:22:06;;;;;;;10.52;7.38;;;10.90;90.50;;;;;;5066420;28;20086;-68
2021/05/12 04:24:32;;;;;;;10.05;7.00;;;10.80;90.40;;;;;;5076323;28;20043;-67
2021/05/12 04:26:58;;;;;;;11.40;7.70;;;10.80;90.40;;;;;;5074836;28;20099;-68
2021/05/12 04:29:23;;;;;;;12.15;8.73;;;10.80;90.40;;;;;;5065067;28;20404;-67
2021/05/12 04:31:49;;;;;;;11.48;8.32;;;10.80;90.70;;;;;;5089363;28;20024;-68
2021/05/12 04:34:15;;;;;;;12.48;8.25;;;10.80;90.40;;;;;;5083876;28;20035;-68
2021/05/12 04:36:41;;;;;;;12.23;8.98;;;10.80;90.50;;;;;;5071012;28;20040;-69
2021/05/12 04:39:07;;;;;;;12.25;9.20;;;10.80;90.40;;;;;;5087994;28;20031;-68
2021/05/12 04:41:33;;;;;;;12.60;8.82;;;10.80;90.50;;;;;;5072049;28;20032;-69
2021/05/12 04:43:59;;;;;;;13.25;9.07;;;10.80;90.50;;;;;;5056234;28;20133;-69
2021/05/12 04:46:25;;;;;;;11.43;8.85;;;10.80;90.50;;;;;;5083032;28;20103;-69
2021/05/12 04:48:52;;;;;;;11.23;9.43;;;10.90;90.50;;;;;;5082918;28;20059;-68
2021/05/12 04:51:19;;;;;;;14.55;9.10;;;10.90;90.50;;;;;;5083909;28;20670;-68
2021/05/12 04:53:45;;;;;;;14.27;9.32;;;10.90;90.50;;;;;;5084070;28;20104;-68
2021/05/12 04:56:11;;;;;;;14.60;9.70;;;10.90;90.50;;;;;;5072290;28;20076;-68
2021/05/12 04:58:37;;;;;;;13.43;9.65;;;10.90;90.50;;;;;;5071881;28;20021;-67
2021/05/12 05:01:03;;;;;;;16.95;10.55;;;10.90;90.50;;;;;;5072803;28;20032;-68
2021/05/12 05:03:28;;;;;;;13.45;9.85;;;10.90;90.40;;;;;;5071845;28;20173;-67
2021/05/12 05:05:54;;;;;;;11.80;10.30;;;10.80;90.40;;;;;;5056614;28;20678;-67
2021/05/12 05:08:20;;;;;;;17.85;11.60;;;10.90;90.40;;;;;;5071572;28;20029;-67
2021/05/12 05:10:47;;;;;;;14.25;11.20;;;10.80;90.40;;;;;;5070968;28;20455;-68
2021/05/12 05:13:13;;;;;;;14.98;10.80;;;10.80;90.50;;;;;;5081503;28;20038;-68
2021/05/12 05:15:39;;;;;;;13.57;10.60;;;10.80;90.50;;;;;;5088900;28;20027;-68
2021/05/12 05:18:04;;;;;;;16.55;11.27;;;10.80;90.40;;;;;;5071454;28;20028;-67
2021/05/12 05:20:30;;;;;;;16.45;11.68;;;10.80;90.50;;;;;;5075377;28;20104;-67
2021/05/12 05:22:59;;;;;;;16.42;10.95;;;10.80;90.40;;;;;;5063653;28;20056;-68
2021/05/12 05:25:25;;;;;;;15.60;10.98;;;10.80;90.50;;;;;;5067886;28;20056;-67
2021/05/12 05:27:50;;;;;;;18.10;11.88;;;10.80;90.40;;;;;;5084327;28;20062;-67
2021/05/12 05:30:16;;;;;;;17.90;11.77;;;10.80;90.50;;;;;;5073102;28;20044;-67
2021/05/12 05:32:42;;;;;;;19.55;11.35;;;10.80;90.50;;;;;;5070948;28;20099;-68
2021/05/12 05:35:08;;;;;;;17.95;11.85;;;10.80;90.50;;;;;;5069775;28;20035;-67
2021/05/12 05:37:34;;;;;;;16.35;11.45;;;10.80;90.50;;;;;;5070826;28;20226;-67
2021/05/12 05:39:59;;;;;;;15.90;11.85;;;10.80;90.60;;;;;;5054832;28;20020;-67
2021/05/12 05:42:25;;;;;;;21.63;12.15;;;10.80;90.60;;;;;;5071678;28;20472;-67
2021/05/12 05:44:51;;;;;;;17.10;11.18;;;10.80;90.60;;;;;;5072714;28;20090;-67
2021/05/12 05:47:17;;;;;;;16.25;11.00;;;10.80;90.50;;;;;;5073456;28;20086;-68
2021/05/12 05:49:43;;;;;;;16.15;12.45;;;10.80;90.50;;;;;;5070432;28;20389;-67
2021/05/12 05:52:08;;;;;;;16.85;12.38;;;10.80;90.50;;;;;;5070818;28;20050;-68
2021/05/12 05:54:34;;;;;;;17.08;12.15;;;10.80;90.60;;;;;;5069386;28;20028;-67
2021/05/12 05:57:06;;;;;;;17.50;12.35;;;10.90;90.50;;;;;;5070220;28;20107;-67
2021/05/12 05:59:32;;;;;;;;;;;10.90;90.60;;;;;;5069380;28;20417;-67
2021/05/12 06:01:58;;;;;;;15.93;12.07;;;10.90;90.50;;;;;;5034116;28;19908;-67
2021/05/12 06:04:25;;;;;;;18.92;12.18;;;10.90;90.80;;;;;;5069363;28;20024;-67
2021/05/12 06:06:51;;;;;;;22.65;12.23;;;10.90;90.50;;;;;;5086125;28;20024;-67
2021/05/12 06:09:18;;;;;;;16.98;12.15;;;10.90;90.40;;;;;;5083129;28;20488;-67
2021/05/12 06:11:43;;;;;;;18.58;12.05;;;10.90;90.50;;;;;;5079512;28;20029;-67
2021/05/12 06:14:09;;;;;;;17.42;12.25;;;10.90;90.40;;;;;;5059675;28;20106;-68
2021/05/12 06:16:35;;;;;;;18.25;12.57;;;10.90;90.40;;;;;;5077278;28;20036;-67
2021/05/12 06:19:00;;;;;;;19.63;13.80;;;10.90;90.50;;;;;;5075909;28;20129;-67
2021/05/12 06:21:26;;;;;;;20.25;13.88;;;10.90;90.50;;;;;;5071277;28;20087;-67
2021/05/12 06:23:52;;;;;;;15.95;12.02;;;10.90;90.50;;;;;;5068183;28;20043;-68
2021/05/12 06:26:19;;;;;;;18.98;12.30;;;11.00;90.60;;;;;;5070004;28;20107;-67
2021/05/12 06:28:46;;;;;;;15.93;12.25;;;11.00;90.50;;;;;;5070468;28;20024;-67
2021/05/12 06:31:12;;;;;;;18.17;12.68;;;11.00;90.50;;;;;;5056870;28;20126;-67
2021/05/12 06:33:39;;;;;;;18.95;12.30;;;11.00;90.50;;;;;;5079546;28;20103;-67
2021/05/12 06:36:06;;;;;;;18.10;12.05;;;11.00;90.50;;;;;;5055014;28;20079;-67
2021/05/12 06:38:32;;;;;;;22.92;12.55;;;11.00;90.40;;;;;;5046085;28;20128;-67
2021/05/12 06:40:58;;;;;;;15.68;11.60;;;11.00;90.40;;;;;;5039992;28;20037;-67
2021/05/12 06:43:23;;;;;;;16.90;11.85;;;10.90;90.40;;;;;;5057399;28;20020;-67
2021/05/12 06:45:49;;;;;;;14.13;11.63;;;11.00;90.40;;;;;;5069124;28;20430;-67
2021/05/12 06:48:15;;;;;;;17.95;11.80;;;10.90;90.40;;;;;;5064609;28;20329;-67
2021/05/12 06:50:40;;;;;;;18.40;13.13;;;11.00;90.40;;;;;;5069007;28;20076;-67
2021/05/12 06:53:06;;;;;;;18.13;11.55;;;11.00;90.50;;;;;;5069470;28;20017;-67
2021/05/12 06:55:31;;;;;;;16.45;11.30;;;11.00;90.50;;;;;;5067836;28;20112;-67
2021/05/12 06:57:57;;;;;;;16.38;11.18;;;11.00;90.40;;;;;;5049524;28;20029;-67
2021/05/12 07:00:24;;;;;;;16.70;10.82;;;11.00;90.30;;;;;;5067167;28;20035;-67
2021/05/12 07:02:50;;;;;;;16.52;11.30;;;11.00;90.40;;;;;;5069255;28;20025;-66
2021/05/12 07:05:16;;;;;;;16.08;11.00;;;11.00;90.30;;;;;;5068324;28;20031;-66
2021/05/12 07:07:45;;;;;;;16.95;10.80;;;11.00;90.30;;;;;;5051673;28;20071;-67
2021/05/12 07:10:12;;;;;;;16.60;10.23;;;11.00;90.30;;;;;;5069058;28;20021;-67
2021/05/12 07:12:38;;;;;;;17.33;11.05;;;11.00;90.30;;;;;;5062827;28;20033;-67
2021/05/12 07:15:05;;;;;;;14.30;10.75;;;10.90;90.30;;;;;;5068241;28;20095;-67
2021/05/12 07:17:31;;;;;;;17.05;11.93;;;11.00;90.50;;;;;;5049527;28;20056;-67
2021/05/12 07:19:56;;;;;;;17.13;11.38;;;11.00;90.30;;;;;;5067163;28;20044;-67
2021/05/12 07:22:23;;;;;;;18.80;11.88;;;11.00;90.30;;;;;;5050165;28;20028;-67
2021/05/12 07:24:49;;;;;;;16.67;11.30;;;10.90;90.30;;;;;;5052651;28;20111;-68
2021/05/12 07:27:16;;;;;;;16.35;11.77;;;10.90;90.40;;;;;;5086996;28;20028;-68
2021/05/12 07:29:41;;;;;;;13.70;11.95;;;10.90;90.40;;;;;;5069733;28;20037;-69
2021/05/12 07:32:07;;;;;;;17.80;12.13;;;10.90;90.30;;;;;;5072439;28;20025;-68
2021/05/12 07:34:32;;;;;;;13.70;11.43;;;10.90;90.30;;;;;;5071589;28;20032;-68
2021/05/12 07:36:58;;;;;;;19.17;12.18;;;10.90;90.30;;;;;;5072997;28;20512;-68
2021/05/12 07:39:24;;;;;;;21.00;13.38;;;10.90;90.40;;;;;;5072643;28;20376;-68
2021/05/12 07:41:51;;;;;;;18.92;12.52;;;10.90;90.30;;;;;;5054909;28;20392;-68
2021/05/12 07:44:17;;;;;;;19.50;12.93;;;10.90;90.30;;;;;;5072163;28;20039;-68
2021/05/12 07:46:44;;;;;;;17.95;12.18;;;10.90;90.30;;;;;;5068094;28;20381;-68
2021/05/12 07:49:09;;;;;;;16.55;12.20;;;10.90;90.30;;;;;;5048149;28;20029;-68
2021/05/12 07:51:35;;;;;;;21.42;12.88;;;10.80;90.30;;;;;;5072815;28;20066;-68
2021/05/12 07:54:00;;;;;;;20.05;12.35;;;10.80;90.30;;;;;;5071162;28;20397;-68
2021/05/12 07:56:26;;;;;;;18.58;12.98;;;10.80;90.30;;;;;;5053856;28;20104;-68
2021/05/12 07:58:51;;;;;;;16.23;12.63;;;10.80;90.30;;;;;;5072432;28;20511;-68
2021/05/12 08:01:22;;;;;;;17.67;12.65;;;10.80;90.20;;;;;;5072287;28;20025;-68
2021/05/12 08:03:48;;;;;;;19.13;12.38;;;10.70;90.20;;;;;;5053681;28;20025;-69
2021/05/12 08:06:14;;;;;;;18.20;11.85;;;10.70;90.30;;;;;;5061000;28;20036;-68
2021/05/12 08:08:39;;;;;;;17.27;11.55;;;10.70;90.30;;;;;;5071124;28;20028;-68
2021/05/12 08:11:06;;;;;;;16.90;12.05;;;10.70;90.40;;;;;;5071842;28;20025;-68
2021/05/12 08:13:32;;;;;;;19.58;12.80;;;10.70;90.40;;;;;;5072934;28;20024;-68
2021/05/12 08:15:58;;;;;;;16.92;11.70;;;10.70;90.40;;;;;;5070928;28;20047;-68
2021/05/12 08:18:24;;;;;;;16.38;12.07;;;10.70;90.40;;;;;;5054470;28;20029;-68
2021/05/12 08:20:52;;;;;;;15.48;11.70;;;10.70;90.40;;;;;;5044631;28;20028;-69
2021/05/12 08:23:18;;;;;;;16.52;10.93;;;10.70;90.30;;;;;;5043626;28;20017;-68
2021/05/12 08:25:45;;;;;;;17.30;11.60;;;10.60;90.30;;;;;;5054897;28;20030;-68
2021/05/12 08:28:11;;;;;;;15.63;10.98;;;10.60;90.60;;;;;;5071312;28;20023;-67
2021/05/12 08:30:39;;;;;;;18.38;11.40;;;10.60;90.50;;;;;;5069939;28;20445;-68
2021/05/12 08:33:05;;;;;;;15.68;11.73;;;10.60;90.50;;;;;;5060478;28;20048;-68
2021/05/12 08:35:30;;;;;;;17.10;11.25;;;10.60;90.40;;;;;;5070992;28;20219;-69
2021/05/12 08:37:56;;;;;;;14.23;11.20;;;10.60;90.50;;;;;;5052653;28;20025;-68
2021/05/12 08:40:22;;;;;;;16.02;11.02;;;10.60;90.40;;;;;;5085758;28;20020;-69
2021/05/12 08:42:53;;;;;;;14.95;11.48;;;10.60;90.40;;;;;;5049204;28;20020;-69
2021/05/12 08:45:19;;;;;;;15.43;11.43;;;10.60;90.60;;;;;;5068960;28;20188;-67
2021/05/12 08:47:53;;;;;;;15.93;13.02;;;10.60;90.60;;;;;;5059953;28;20483;-67
2021/05/12 08:50:19;;;;;;;19.30;11.25;;;10.60;90.50;;;;;;5069510;28;20042;-67
2021/05/12 08:52:46;;;;;;;13.90;10.95;;;10.60;90.60;;;;;;5072683;28;20036;-67
2021/05/12 08:55:12;;;;;;;17.60;11.57;;;10.60;90.50;;;;;;5070887;28;20040;-67
2021/05/12 08:57:37;;;;;;;15.80;11.10;;;10.60;90.60;;;;;;5072287;28;20036;-67
2021/05/12 09:00:06;;;;;;;16.45;10.40;;;10.60;90.60;;;;;;5052980;28;20017;-68
2021/05/12 09:02:32;;;;;;;17.42;10.82;;;10.60;90.60;;;;;;5067387;28;20090;-68
2021/05/12 09:04:58;;;;;;;14.43;10.38;;;10.60;90.50;;;;;;5082914;28;20032;-68
2021/05/12 09:07:23;;;;;;;13.85;10.88;;;10.60;90.50;;;;;;5074583;28;20040;-68
2021/05/12 09:09:50;;;;;;;14.75;10.38;;;10.60;90.60;;;;;;5072008;28;20056;-68
2021/05/12 09:12:16;;;;;;;14.10;10.18;;;10.60;90.70;;;;;;5071493;28;20067;-69
2021/05/12 09:14:42;;;;;;;12.75;10.15;;;10.60;90.60;;;;;;5069663;28;20043;-68
2021/05/12 09:17:07;;;;;;;13.68;10.63;;;10.60;90.60;;;;;;5069969;28;20035;-68
2021/05/12 09:19:33;;;;;;;14.40;10.13;;;10.60;90.70;;;;;;5072854;28;20485;-70
2021/05/12 09:22:05;;;;;;;14.75;9.63;;;10.60;90.70;;;;;;5062105;28;20050;-69
2021/05/12 09:27:01;;;;;;;13.20;10.07;;;10.60;90.70;;;;;;5107379;27;20495;-70
2021/05/12 09:29:29;;;;;;;11.68;9.07;;;10.70;90.80;;;;;;5121448;27;20478;-71
2021/05/12 09:32:03;;;;;;;11.82;9.48;;;10.70;90.70;;;;;;5128819;27;20027;-72
2021/05/12 09:34:47;;;;;;;12.48;9.52;;;10.70;90.80;;;;;;5116067;22;20447;-70
2021/05/12 09:37:23;;;;;;;13.35;9.20;;;10.80;90.80;;;;;;5079214;28;20060;-71
2021/05/12 09:39:52;;;;;;;12.23;9.13;;;10.80;90.90;;;;;;5088418;28;20017;-71
2021/05/12 09:42:21;;;;;;;11.15;8.57;;;10.90;90.80;;;;;;5090174;28;20424;-71
2021/05/12 09:45:06;;;;;;;12.80;8.65;;;10.90;90.80;;;;;;5071704;28;20093;-71
2021/05/12 09:47:32;;;;;;;11.70;9.27;;;10.90;90.70;;;;;;5090067;28;20389;-72
2021/05/12 09:49:57;;;;;;;13.90;10.40;;;10.90;90.70;;;;;;5090979;28;20028;-71
2021/05/12 09:52:30;;;;;;;11.75;9.65;;;11.10;90.80;;;;;;5073586;28;20101;-71
2021/05/12 09:55:04;;;;;;;15.48;11.48;;;11.10;90.70;;;;;;5089016;28;20111;-72
2021/05/12 09:57:30;;;;;;;14.52;10.48;;;11.10;90.70;;;;;;5090093;28;20040;-72
2021/05/12 09:59:55;;;;;;;13.73;9.75;;;11.10;90.70;;;;;;5090852;28;20046;-71
2021/05/12 10:02:21;;;;;;;15.88;11.25;;;11.10;90.70;;;;;;5090821;28;20024;-71
2021/05/12 10:04:47;;;;;;;13.00;10.80;;;11.20;90.80;;;;;;5070873;28;20016;-71
2021/05/12 10:07:20;;;;;;;15.80;11.02;;;11.20;90.70;;;;;;5071683;28;20093;-71
2021/05/12 10:09:49;;;;;;;17.77;12.45;;;11.20;90.80;;;;;;5090559;28;20028;-71
2021/05/12 10:12:19;;;;;;;19.02;12.00;;;11.30;90.70;;;;;;5090079;28;20024;-72
2021/05/12 10:14:47;;;;;;;16.00;11.90;;;11.30;90.80;;;;;;5089143;28;20564;-73
2021/05/12 10:17:15;;;;;;;13.85;11.55;;;11.40;90.80;;;;;;5071685;28;20039;-71
2021/05/12 10:19:42;;;;;;;16.88;11.50;;;11.40;90.70;;;;;;5068527;28;20151;-72
2021/05/12 10:22:09;;;;;;;17.20;12.48;;;11.40;90.70;;;;;;5085903;28;20020;-71
2021/05/12 10:24:38;;;;;;;16.83;12.45;;;11.40;90.50;;;;;;5089170;28;20324;-72
2021/05/12 10:27:09;;;;;;;14.63;10.98;;;11.50;90.60;;;;;;5087838;28;20031;-72
2021/05/12 10:29:37;;;;;;;15.60;11.30;;;11.60;90.60;;;;;;5090096;28;20035;-71
2021/05/12 10:32:24;;;;;;;17.33;11.35;;;11.60;90.50;;;;;;5089847;28;20761;-72
2021/05/12 10:35:05;;;;;;;15.68;11.40;;;11.60;90.60;;;;;;5077730;28;20560;-72
2021/05/12 10:37:53;;;;;;;15.20;10.40;;;11.60;90.50;;;;;;5090008;28;20064;-71
2021/05/12 10:40:26;;;;;;;16.63;11.82;;;11.60;90.50;;;;;;5068977;28;20445;-72
2021/05/12 10:43:24;;;;;;;16.58;10.23;;;11.60;90.60;;;;;;5090029;28;20100;-71
2021/05/12 10:45:53;;;;;;;11.98;9.35;;;11.70;90.70;;;;;;5079907;28;20022;-71
2021/05/12 10:48:28;;;;;;;13.98;10.27;;;11.70;90.50;;;;;;5090309;28;20175;-71
2021/05/12 10:50:54;;;;;;;12.50;9.95;;;11.70;90.40;;;;;;5089594;28;20024;-70
2021/05/12 10:53:21;;;;;;;13.25;10.35;;;11.60;90.40;;;;;;5072194;28;20084;-71
2021/05/12 10:55:59;;;;;;;16.00;11.30;;;11.60;90.40;;;;;;5089049;28;20016;-70
2021/05/12 10:58:29;;;;;;;13.50;10.38;;;11.60;90.50;;;;;;5071288;28;20329;-71
2021/05/12 11:01:04;;;;;;;16.50;11.05;;;11.60;90.40;;;;;;5089913;28;20119;-71
2021/05/12 11:03:48;;;;;;;17.58;11.68;;;11.60;90.30;;;;;;5090045;28;20488;-71
2021/05/12 11:06:21;;;;;;;15.93;10.85;;;11.70;90.30;;;;;;5089766;28;20031;-71
2021/05/12 11:09:07;;;;;;;17.92;11.60;;;11.70;90.20;;;;;;5093199;28;20063;-71
2021/05/12 11:11:39;;;;;;;15.40;10.60;;;11.80;90.40;;;;;;5092559;28;20067;-70
2021/05/12 11:14:26;;;;;;;18.58;11.77;;;11.80;90.20;;;;;;5087759;28;20024;-70
2021/05/12 11:17:06;;;;;;;14.98;10.82;;;11.80;90.20;;;;;;5074999;28;20038;-70
2021/05/12 11:19:42;;;;;;;15.65;11.18;;;11.80;90.20;;;;;;5074551;28;20028;-71
2021/05/12 11:22:31;;;;;;;15.05;10.38;;;11.80;90.10;;;;;;5077422;28;20048;-70
2021/05/12 11:25:04;;;;;;;15.18;10.43;;;11.80;90.20;;;;;;5066532;28;20028;-70
2021/05/12 11:28:01;;;;;;;15.85;11.55;;;11.80;90.10;;;;;;5093254;28;20028;-70
2021/05/12 11:33:03;;;;;;;15.93;10.95;;;11.90;90.00;;;;;;5084424;28;20031;-71
2021/05/12 11:35:31;;;;;;;15.93;10.38;;;11.90;90.10;;;;;;5091870;28;20464;-71
2021/05/12 11:37:56;;;;;;;19.17;11.52;;;11.90;90.20;;;;;;5093167;28;20028;-71
2021/05/12 11:40:22;;;;;;;14.35;11.15;;;11.90;90.20;;;;;;5092975;28;20463;-71
2021/05/12 11:42:53;;;;;;;19.00;10.63;;;12.00;90.10;;;;;;5086064;28;20111;-71
2021/05/12 11:45:22;;;;;;;15.18;10.65;;;12.10;90.10;;;;;;5091683;28;20023;-70
2021/05/12 11:47:58;;;;;;;18.23;10.80;;;12.20;90.00;;;;;;5093251;28;20039;-71
2021/05/12 11:50:26;;;;;;;13.88;10.93;;;12.30;90.00;;;;;;5090671;28;20023;-70
2021/05/12 11:52:52;;;;;;;15.30;11.30;;;12.20;89.80;;;;;;5074096;28;20024;-71
2021/05/12 11:55:21;;;;;;;17.17;11.98;;;12.20;89.90;;;;;;5074029;28;20051;-70
2021/05/12 11:57:49;;;;;;;18.08;12.10;;;12.20;89.90;;;;;;5092659;28;20434;-70
2021/05/12 12:00:17;;;;;;;18.38;12.23;;;12.10;89.80;;;;;;5092995;28;20031;-70
2021/05/12 12:03:05;;;;;;;20.50;12.55;;;12.10;89.80;;;;;;5073064;28;20391;-71
2021/05/12 12:05:39;;;;;;;18.27;11.80;;;12.10;90.00;;;;;;5085809;28;20117;-71
2021/05/12 12:08:16;;;;;;;15.15;12.30;;;12.00;89.60;;;;;;5088371;28;20027;-70
2021/05/12 12:10:42;;;;;;;20.13;12.60;;;12.10;89.60;;;;;;5092489;28;20150;-71
2021/05/12 12:13:16;;;;;;;23.42;12.98;;;12.10;89.30;;;;;;5093190;28;20494;-70
2021/05/12 12:15:44;;;;;;;19.52;13.60;;;12.10;89.10;;;;;;5090285;28;20033;-70
2021/05/12 12:18:10;;;;;;;17.83;12.27;;;12.20;89.40;;;;;;5091527;28;20024;-71
2021/05/12 12:20:38;;;;;;;21.35;12.68;;;12.40;89.30;;;;;;5074206;28;20076;-71
2021/05/12 12:23:05;;;;;;;16.67;12.07;;;12.60;89.50;;;;;;5092098;28;20039;-71
2021/05/12 12:28:26;;;;;;;16.25;11.95;;;12.90;88.60;;;;;;5077760;28;20047;-71
2021/05/12 12:30:51;;;;;;;15.13;11.07;;;13.10;88.40;;;;;;5090855;28;20036;-70
2021/05/12 12:33:20;;;;;;;16.90;11.35;;;13.20;88.00;;;;;;5092185;28;20031;-71
2021/05/12 12:36:05;;;;;;;16.60;10.68;;;13.30;88.10;;;;;;5088825;28;20028;-71
2021/05/12 12:38:32;;;;;;;16.70;11.02;;;13.30;87.90;;;;;;5091645;28;20039;-69
2021/05/12 12:40:59;;;;;;;15.90;11.00;;;13.50;87.70;;;;;;5089313;28;20091;-70
2021/05/12 12:43:39;;;;;;;17.17;11.48;;;13.70;88.20;;;;;;5090772;28;20105;-70
2021/05/12 12:46:05;;;;;;;14.65;10.52;;;13.80;86.90;;;;;;5089476;28;20027;-69
2021/05/12 12:48:31;;;;;;;15.85;10.63;;;13.90;87.00;;;;;;5090806;28;20153;-70